Tolna, North Dakota
Current Conditions -  °F | °C
As of 4:55 PM on Wednesday 22 Oct 2014 (Local Time) from KDVL Reporting Station
Clear Clear  
Wind Chill: 55°   Ceiling: Unl
Heat Index: 55°   Visibility: 10mi
Dew Point: 46°   Wind: 13mph
Humidity: 72%   Direction: 200°SSW
Pressure: 29.77"   Gusts: NA
Location:  47.83°N, 98.44°W
Report Text: KDVL 222155Z AUTO 20011KT 10SM CLR 13/08 A2977 RMK AO1
Loading
Personal Weather Stations






























Interactive Weather Map
Tropical Storm Tracking
New forecast layout! Learn more

10-Day Weather Forecast

Advertisements
Track Severe Weather on mobile